createdAt,value
2022-09-06T00:00:58.750Z,1.30
2022-09-06T00:03:28.187Z,1.47
2022-09-06T00:05:55.378Z,1.40
2022-09-06T00:08:22.534Z,1.63
2022-09-06T00:11:00.921Z,1.37
2022-09-06T00:13:29.121Z,1.37
2022-09-06T00:15:56.637Z,1.30
2022-09-06T00:18:23.985Z,1.47
2022-09-06T00:20:51.165Z,1.47
2022-09-06T00:23:18.294Z,1.40
2022-09-06T00:25:45.580Z,1.50
2022-09-06T00:28:12.912Z,1.47
2022-09-06T00:30:40.107Z,1.40
2022-09-06T00:33:07.592Z,1.40
2022-09-06T00:35:34.897Z,1.40
2022-09-06T00:38:02.556Z,1.40
2022-09-06T00:40:30.493Z,1.30
2022-09-06T00:42:58.506Z,1.50
2022-09-06T00:45:26.811Z,1.50
2022-09-06T00:47:54.066Z,1.50
2022-09-06T00:50:21.335Z,1.40
2022-09-06T00:52:49.772Z,1.43
2022-09-06T00:55:17.189Z,1.60
2022-09-06T00:57:46.430Z,1.33
2022-09-06T01:00:14.075Z,1.47
2022-09-06T01:02:41.356Z,1.40
2022-09-06T01:05:09.053Z,1.50
2022-09-06T01:07:42.446Z,1.67
2022-09-06T01:10:09.890Z,1.50
2022-09-06T01:12:46.060Z,1.40
2022-09-06T01:15:21.657Z,1.53
2022-09-06T01:18:07.494Z,1.47
2022-09-06T01:20:42.799Z,1.33
2022-09-06T01:23:09.943Z,1.40
2022-09-06T01:25:48.404Z,1.30
2022-09-06T01:28:23.624Z,1.40
2022-09-06T01:31:09.765Z,1.40
2022-09-06T01:33:45.520Z,1.50
2022-09-06T01:36:15.815Z,1.40
2022-09-06T01:38:42.995Z,1.40
2022-09-06T01:41:10.975Z,1.50
2022-09-06T01:43:40.120Z,1.40
2022-09-06T01:46:13.254Z,1.60
2022-09-06T01:48:49.768Z,1.30
2022-09-06T01:51:19.891Z,1.30
2022-09-06T01:53:55.073Z,1.50
2022-09-06T01:56:31.604Z,1.50
2022-09-06T01:59:16.782Z,1.50
2022-09-06T02:01:47.085Z,1.40
2022-09-06T02:04:34.583Z,1.30
2022-09-06T02:07:03.765Z,1.60
2022-09-06T02:09:33.835Z,1.40
2022-09-06T02:12:01.985Z,1.50
2022-09-06T02:14:34.333Z,1.57
2022-09-06T02:17:01.990Z,1.47
2022-09-06T02:19:35.651Z,1.50
2022-09-06T02:22:04.228Z,1.40
2022-09-06T02:24:32.250Z,1.40
2022-09-06T02:26:59.575Z,1.40
2022-09-06T02:29:27.402Z,1.43
2022-09-06T02:32:20.827Z,1.50
2022-09-06T02:34:48.381Z,1.43
2022-09-06T02:37:16.181Z,1.43
2022-09-06T02:39:43.636Z,1.53
2022-09-06T02:42:12.039Z,1.30
2022-09-06T02:44:39.200Z,1.33
2022-09-06T02:47:06.566Z,1.50
2022-09-06T02:49:33.713Z,1.50
2022-09-06T02:52:00.903Z,1.47
2022-09-06T02:54:28.179Z,1.60
2022-09-06T02:56:55.355Z,1.57
2022-09-06T02:59:22.500Z,1.40
2022-09-06T03:01:49.695Z,1.23
2022-09-06T03:04:16.847Z,1.47
2022-09-06T03:06:44.005Z,1.47
2022-09-06T03:09:11.356Z,1.57
2022-09-06T03:11:38.584Z,1.37
2022-09-06T03:14:05.871Z,1.43
2022-09-06T03:16:33.110Z,1.40
2022-09-06T03:19:00.258Z,1.40
2022-09-06T03:21:27.415Z,1.40
2022-09-06T03:23:54.931Z,1.40
2022-09-06T03:26:22.220Z,1.40
2022-09-06T03:28:50.405Z,1.40
2022-09-06T03:31:17.802Z,1.30
2022-09-06T03:33:45.005Z,1.50
2022-09-06T03:36:12.154Z,1.50
2022-09-06T03:38:39.781Z,1.57
2022-09-06T03:41:06.964Z,1.60
2022-09-06T03:43:34.219Z,1.20
2022-09-06T03:46:02.528Z,1.40
2022-09-06T03:48:30.359Z,1.50
2022-09-06T03:50:58.579Z,1.53
2022-09-06T03:53:26.799Z,1.47
2022-09-06T03:55:54.635Z,1.57
2022-09-06T03:58:23.448Z,1.70
2022-09-06T04:00:51.160Z,1.53
2022-09-06T04:03:19.514Z,1.33
2022-09-06T04:05:46.956Z,1.60
2022-09-06T04:08:14.129Z,1.43
2022-09-06T04:10:41.318Z,1.63
2022-09-06T04:13:08.513Z,1.60
2022-09-06T04:15:37.064Z,1.40
2022-09-06T04:18:09.031Z,1.40
2022-09-06T04:20:36.539Z,1.50
2022-09-06T04:23:04.101Z,1.50
2022-09-06T04:25:31.402Z,1.60
2022-09-06T04:27:58.667Z,1.50
2022-09-06T04:30:25.804Z,1.50
2022-09-06T04:32:52.935Z,1.20
2022-09-06T04:35:20.133Z,1.50
2022-09-06T04:37:47.276Z,2.30
2022-09-06T04:40:14.793Z,1.43
2022-09-06T04:42:41.961Z,1.47
2022-09-06T04:45:09.363Z,1.50
2022-09-06T04:47:36.536Z,1.40
2022-09-06T04:50:03.848Z,1.50
2022-09-06T04:52:30.969Z,1.57
2022-09-06T04:54:58.108Z,1.47
2022-09-06T04:57:25.304Z,1.63
2022-09-06T04:59:52.481Z,1.47
2022-09-06T05:02:19.718Z,1.33
2022-09-06T05:04:46.997Z,1.53
2022-09-06T05:07:14.144Z,1.50
2022-09-06T05:09:41.315Z,1.57
2022-09-06T05:12:08.529Z,1.60
2022-09-06T05:14:35.688Z,1.50
2022-09-06T05:17:02.835Z,1.60
2022-09-06T05:19:30.058Z,1.50
2022-09-06T05:21:57.267Z,1.50
2022-09-06T05:24:24.427Z,1.60
2022-09-06T05:26:51.636Z,1.40
2022-09-06T05:29:18.762Z,1.50
2022-09-06T05:31:45.984Z,1.40
2022-09-06T05:34:15.060Z,1.40
2022-09-06T05:36:42.411Z,1.40
2022-09-06T05:39:09.720Z,1.47
2022-09-06T05:41:36.886Z,1.43
2022-09-06T05:44:04.292Z,1.37
2022-09-06T05:46:31.669Z,1.20
2022-09-06T05:49:01.590Z,1.30
2022-09-06T05:51:28.791Z,1.33
2022-09-06T05:53:56.078Z,1.50
2022-09-06T05:56:23.383Z,1.50
2022-09-06T05:58:50.596Z,1.40
2022-09-06T06:01:19.565Z,1.50
2022-09-06T06:03:54.077Z,1.40
2022-09-06T06:06:21.922Z,1.40
2022-09-06T06:08:49.100Z,1.30
2022-09-06T06:11:16.944Z,1.40
2022-09-06T06:13:44.621Z,1.23
2022-09-06T06:16:13.129Z,1.30
2022-09-06T06:18:40.786Z,1.30
2022-09-06T06:21:11.805Z,1.40
2022-09-06T06:23:39.088Z,1.50
2022-09-06T06:26:07.101Z,1.40
2022-09-06T06:28:35.792Z,1.30
2022-09-06T06:31:03.785Z,1.30
2022-09-06T06:33:31.224Z,1.40
2022-09-06T06:35:59.044Z,1.40
2022-09-06T06:38:30.876Z,1.30
2022-09-06T06:41:02.049Z,1.50
2022-09-06T06:43:36.410Z,1.40
2022-09-06T06:46:06.145Z,1.30
2022-09-06T06:48:33.407Z,1.40
2022-09-06T06:51:00.724Z,1.40
2022-09-06T06:53:28.102Z,1.30
2022-09-06T06:55:55.338Z,1.57
2022-09-06T06:58:22.657Z,1.40
2022-09-06T07:00:50.014Z,1.30
2022-09-06T07:03:17.241Z,1.27
2022-09-06T07:08:32.686Z,1.37
2022-09-06T07:11:00.080Z,1.50
2022-09-06T07:13:27.338Z,1.10
2022-09-06T07:16:06.702Z,1.20
2022-09-06T07:18:33.882Z,1.30
2022-09-06T07:26:36.383Z,1.20
2022-09-06T07:29:05.075Z,1.20
2022-09-06T07:34:20.716Z,1.17
2022-09-06T07:36:48.469Z,1.20
2022-09-06T07:39:15.680Z,1.40
2022-09-06T07:41:43.766Z,1.43
2022-09-06T07:44:10.916Z,1.60
2022-09-06T07:46:38.396Z,1.10
2022-09-06T07:49:06.451Z,1.00
2022-09-06T07:51:33.726Z,1.20
2022-09-06T07:54:26.244Z,1.00
2022-09-06T07:56:48.499Z,1.27
2022-09-06T07:59:15.779Z,1.10
2022-09-06T08:01:43.041Z,1.20
2022-09-06T08:04:12.801Z,1.20
2022-09-06T08:09:32.436Z,1.20
2022-09-06T08:11:59.570Z,1.23
2022-09-06T08:14:26.744Z,1.20
2022-09-06T08:16:53.879Z,1.30
2022-09-06T08:19:21.023Z,1.30
2022-09-06T08:21:48.196Z,1.20
2022-09-06T08:24:15.379Z,1.27
2022-09-06T08:26:43.149Z,1.20
2022-09-06T08:29:10.948Z,1.23
2022-09-06T08:31:39.796Z,1.23
2022-09-06T08:34:07.135Z,1.30
2022-09-06T08:36:34.543Z,1.20
2022-09-06T08:39:02.518Z,1.50
2022-09-06T08:41:48.516Z,1.17
2022-09-06T08:47:19.424Z,1.10
2022-09-06T08:49:47.946Z,1.20
2022-09-06T08:52:17.922Z,1.20
2022-09-06T08:54:55.509Z,1.10
2022-09-06T08:57:40.000Z,1.20
2022-09-06T09:00:12.339Z,1.00
2022-09-06T09:02:42.603Z,1.10
2022-09-06T09:05:14.888Z,1.10
2022-09-06T09:07:50.356Z,1.10
2022-09-06T09:10:24.672Z,1.10
2022-09-06T09:12:51.872Z,1.10
2022-09-06T09:15:21.007Z,1.33
2022-09-06T09:17:50.271Z,1.20
2022-09-06T09:20:17.948Z,1.27
2022-09-06T09:22:45.234Z,1.00
2022-09-06T09:25:17.185Z,1.10
2022-09-06T09:27:45.487Z,1.20
2022-09-06T09:33:00.200Z,1.20
2022-09-06T09:35:34.395Z,1.02
2022-09-06T09:38:07.838Z,1.00
2022-09-06T09:40:41.637Z,1.10
2022-09-06T09:43:11.845Z,1.02
2022-09-06T09:45:38.986Z,1.10
2022-09-06T09:48:18.568Z,1.10
2022-09-06T09:50:45.744Z,1.10
2022-09-06T09:53:14.504Z,1.00
2022-09-06T09:55:42.484Z,1.00
2022-09-06T09:58:18.208Z,0.80
2022-09-06T10:00:45.511Z,0.95
2022-09-06T10:03:17.876Z,0.90
2022-09-06T10:06:02.077Z,1.00
2022-09-06T10:08:31.844Z,1.00
2022-09-06T10:10:59.368Z,1.00
2022-09-06T10:13:29.469Z,1.00
2022-09-06T10:15:58.660Z,1.10
2022-09-06T10:18:30.916Z,1.00
2022-09-06T10:21:07.342Z,0.90
2022-09-06T10:26:32.432Z,0.98
2022-09-06T10:29:05.741Z,0.95
2022-09-06T10:31:32.948Z,1.08
2022-09-06T10:34:12.548Z,0.90
2022-09-06T10:36:41.397Z,1.30
2022-09-06T10:39:34.719Z,1.20
2022-09-06T10:42:19.777Z,1.10
2022-09-06T10:44:57.215Z,0.90
2022-09-06T10:47:28.328Z,1.00
2022-09-06T10:49:59.305Z,1.30
2022-09-06T10:52:30.631Z,1.00
2022-09-06T10:55:02.229Z,0.98
2022-09-06T11:00:21.772Z,1.00
2022-09-06T11:06:08.165Z,1.10
2022-09-06T11:08:48.595Z,1.00
2022-09-06T11:11:19.405Z,1.17
2022-09-06T11:13:47.386Z,1.10
2022-09-06T11:16:14.541Z,1.00
2022-09-06T11:18:57.674Z,1.00
2022-09-06T11:21:33.923Z,0.90
2022-09-06T11:24:07.216Z,1.25
2022-09-06T11:26:35.638Z,1.05
2022-09-06T11:29:09.186Z,1.20
2022-09-06T11:34:38.057Z,1.20
2022-09-06T11:37:07.253Z,1.20
2022-09-06T11:42:41.902Z,1.10
2022-09-06T11:45:09.048Z,1.00
2022-09-06T11:47:42.869Z,1.00
2022-09-06T11:50:19.135Z,1.20
2022-09-06T11:52:50.729Z,1.17
2022-09-06T11:55:22.722Z,1.05
2022-09-06T11:57:54.561Z,1.00
2022-09-06T12:00:23.973Z,1.10
2022-09-06T12:02:52.248Z,0.85
2022-09-06T12:05:19.575Z,1.10
2022-09-06T12:08:05.362Z,1.00
2022-09-06T12:10:32.617Z,0.82
2022-09-06T12:12:59.835Z,1.10
2022-09-06T12:15:29.108Z,1.10
2022-09-06T12:17:56.510Z,1.05
2022-09-06T12:20:42.151Z,1.10
2022-09-06T12:23:09.310Z,1.02
2022-09-06T12:25:36.453Z,1.20
2022-09-06T12:28:05.177Z,1.13
2022-09-06T12:30:45.794Z,1.17
2022-09-06T12:33:33.381Z,0.90
2022-09-06T12:36:14.048Z,1.00
2022-09-06T12:38:41.222Z,1.13
2022-09-06T12:41:08.936Z,0.90
2022-09-06T12:43:39.543Z,1.02
2022-09-06T12:46:07.956Z,1.05
2022-09-06T12:48:39.059Z,1.10
2022-09-06T12:51:07.586Z,1.20
2022-09-06T12:53:35.077Z,1.02
2022-09-06T12:56:06.573Z,0.90
2022-09-06T12:58:34.040Z,1.10
2022-09-06T13:01:09.527Z,1.05
2022-09-06T13:03:57.147Z,1.00
2022-09-06T13:06:27.188Z,0.95
2022-09-06T13:08:55.744Z,1.10
2022-09-06T13:11:34.457Z,1.05
2022-09-06T13:14:02.469Z,1.02
2022-09-06T13:16:34.687Z,1.00
2022-09-06T13:19:31.189Z,0.95
2022-09-06T13:21:58.564Z,0.95
2022-09-06T13:24:37.804Z,1.00
2022-09-06T13:27:45.936Z,1.00
2022-09-06T13:30:31.634Z,1.10
2022-09-06T13:32:58.971Z,0.98
2022-09-06T13:35:30.892Z,1.10
2022-09-06T13:38:16.945Z,1.02
2022-09-06T13:41:09.719Z,1.13
2022-09-06T13:43:40.282Z,0.90
2022-09-06T13:46:08.972Z,1.00
2022-09-06T13:48:36.733Z,1.00
2022-09-06T13:51:05.380Z,0.80
2022-09-06T13:53:32.738Z,0.95
2022-09-06T13:55:59.932Z,1.00
2022-09-06T13:58:28.020Z,1.10
2022-09-06T14:00:55.453Z,1.00
2022-09-06T14:03:27.898Z,1.00
2022-09-06T14:05:55.219Z,1.10
2022-09-06T14:08:22.348Z,1.02
2022-09-06T14:10:49.676Z,0.93
2022-09-06T14:13:17.456Z,1.02
2022-09-06T14:15:45.641Z,1.10
2022-09-06T14:18:14.591Z,1.00
2022-09-06T14:20:42.303Z,1.10
2022-09-06T14:23:09.695Z,0.88
2022-09-06T14:25:37.615Z,1.13
2022-09-06T14:28:05.335Z,1.00
2022-09-06T14:30:32.541Z,1.00
2022-09-06T14:33:00.039Z,0.80
2022-09-06T14:35:28.010Z,1.13
2022-09-06T14:37:55.219Z,1.15
2022-09-06T14:40:22.520Z,1.10
2022-09-06T14:42:50.656Z,1.10
2022-09-06T14:45:18.339Z,1.13
2022-09-06T14:47:45.508Z,1.10
2022-09-06T14:50:12.892Z,1.10
2022-09-06T14:52:40.064Z,1.02
2022-09-06T14:55:08.447Z,1.13
2022-09-06T14:57:36.366Z,1.10
2022-09-06T15:00:06.791Z,1.08
2022-09-06T15:02:35.266Z,1.10
2022-09-06T15:05:02.884Z,1.10
2022-09-06T15:07:30.038Z,1.15
2022-09-06T15:09:57.250Z,1.10
2022-09-06T15:12:24.667Z,1.00
2022-09-06T15:14:51.821Z,1.00
2022-09-06T15:17:19.016Z,1.20
2022-09-06T15:19:46.175Z,1.17
2022-09-06T15:22:13.419Z,1.02
2022-09-06T15:24:40.741Z,1.05
2022-09-06T15:27:07.927Z,1.00
2022-09-06T15:29:35.127Z,1.00
2022-09-06T15:32:02.383Z,1.23
2022-09-06T15:34:29.564Z,0.90
2022-09-06T15:36:57.101Z,1.20
2022-09-06T15:39:24.435Z,1.10
2022-09-06T15:41:52.029Z,1.08
2022-09-06T15:44:20.589Z,1.05
2022-09-06T15:46:47.833Z,1.20
2022-09-06T15:49:16.241Z,1.20
2022-09-06T15:51:43.730Z,1.20
2022-09-06T15:54:11.852Z,1.20
2022-09-06T15:56:39.096Z,1.10
2022-09-06T15:59:07.070Z,1.13
2022-09-06T16:01:34.615Z,1.17
2022-09-06T16:04:08.600Z,1.10
2022-09-06T16:06:42.620Z,1.10
2022-09-06T16:09:11.430Z,2.05
2022-09-06T16:11:38.647Z,2.35
2022-09-06T16:14:06.601Z,2.58
2022-09-06T16:16:34.552Z,3.83
2022-09-06T16:19:01.884Z,1.33
2022-09-06T16:21:32.179Z,1.15
2022-09-06T16:24:03.889Z,1.50
2022-09-06T16:26:34.991Z,1.92
2022-09-06T16:29:02.720Z,1.20
2022-09-06T16:31:30.283Z,1.23
2022-09-06T16:33:58.332Z,1.42
2022-09-06T16:36:25.699Z,2.20
2022-09-06T16:38:53.261Z,2.00
2022-09-06T16:41:22.620Z,1.50
2022-09-06T16:43:49.799Z,1.60
2022-09-06T16:46:18.071Z,1.88
2022-09-06T16:48:51.356Z,1.23
2022-09-06T16:51:19.475Z,1.40
2022-09-06T16:53:47.730Z,1.13
2022-09-06T16:56:16.617Z,1.20
2022-09-06T16:58:44.499Z,1.30
2022-09-06T17:01:11.763Z,1.30
2022-09-06T17:03:39.703Z,1.20
2022-09-06T17:06:07.752Z,1.20
2022-09-06T17:08:36.448Z,1.30
2022-09-06T17:11:04.732Z,1.17
2022-09-06T17:13:32.494Z,1.20
2022-09-06T17:16:22.126Z,1.00
2022-09-06T17:18:49.883Z,1.10
2022-09-06T17:21:17.151Z,1.00
2022-09-06T17:23:44.314Z,1.20
2022-09-06T17:26:11.547Z,1.20
2022-09-06T17:28:40.633Z,1.17
2022-09-06T17:31:09.009Z,1.20
2022-09-06T17:33:36.523Z,1.10
2022-09-06T17:36:23.754Z,1.03
2022-09-06T17:38:53.651Z,1.20
2022-09-06T17:41:25.633Z,1.20
2022-09-06T17:43:54.156Z,1.40
2022-09-06T17:46:26.445Z,1.40
2022-09-06T17:48:55.977Z,1.20
2022-09-06T17:51:23.227Z,1.30
2022-09-06T17:53:50.395Z,1.33
2022-09-06T17:56:18.819Z,1.37
2022-09-06T17:58:56.474Z,1.37
2022-09-06T18:01:24.508Z,1.20
2022-09-06T18:03:52.070Z,1.50
2022-09-06T18:06:22.624Z,1.30
2022-09-06T18:08:51.101Z,1.20
2022-09-06T18:11:32.096Z,1.47
2022-09-06T18:14:01.063Z,1.43
2022-09-06T18:16:28.994Z,1.50
2022-09-06T18:18:57.735Z,1.57
2022-09-06T18:21:26.290Z,1.60
2022-09-06T18:23:53.746Z,1.50
2022-09-06T18:26:21.219Z,1.50
2022-09-06T18:28:48.663Z,1.57
2022-09-06T18:31:20.232Z,1.57
2022-09-06T18:33:47.511Z,1.60
2022-09-06T18:36:15.976Z,1.50
2022-09-06T18:38:43.541Z,1.50
2022-09-06T18:41:31.291Z,1.50
2022-09-06T18:44:00.465Z,1.50
2022-09-06T18:46:27.803Z,1.50
2022-09-06T18:48:56.099Z,1.40
2022-09-06T18:51:23.271Z,1.50
2022-09-06T18:53:50.500Z,1.63
2022-09-06T18:56:17.746Z,1.43
2022-09-06T18:58:45.210Z,1.50
2022-09-06T19:01:13.652Z,1.60
2022-09-06T19:03:41.989Z,1.50
2022-09-06T19:06:10.433Z,1.57
2022-09-06T19:08:37.873Z,1.60
2022-09-06T19:11:10.406Z,1.60
2022-09-06T19:13:38.576Z,1.60
2022-09-06T19:16:06.452Z,1.93
2022-09-06T19:18:34.068Z,1.70
2022-09-06T19:21:02.336Z,1.60
2022-09-06T19:23:29.995Z,1.90
2022-09-06T19:25:58.060Z,1.50
2022-09-06T19:28:25.416Z,1.67
2022-09-06T19:30:52.719Z,1.70
2022-09-06T19:33:20.007Z,1.50
2022-09-06T19:36:07.931Z,1.67
2022-09-06T19:38:47.331Z,1.50
2022-09-06T19:41:20.546Z,1.70
2022-09-06T19:43:50.601Z,1.97
2022-09-06T19:46:17.785Z,1.73
2022-09-06T19:48:46.160Z,2.17
2022-09-06T19:51:14.660Z,1.90
2022-09-06T19:53:42.288Z,2.00
2022-09-06T19:56:13.378Z,2.10
2022-09-06T19:58:40.926Z,2.60
2022-09-06T20:01:08.603Z,2.43
2022-09-06T20:03:38.001Z,2.40
2022-09-06T20:06:07.548Z,2.23
2022-09-06T20:08:35.247Z,2.50
2022-09-06T20:11:02.967Z,2.60
2022-09-06T20:13:30.428Z,2.17
2022-09-06T20:15:57.695Z,2.20
2022-09-06T20:18:25.797Z,2.37
2022-09-06T20:20:56.803Z,2.60
2022-09-06T20:23:24.075Z,2.10
2022-09-06T20:25:58.767Z,2.10
2022-09-06T20:28:26.142Z,2.00
2022-09-06T20:30:53.424Z,2.00
2022-09-06T20:33:20.643Z,1.90
2022-09-06T20:35:54.501Z,2.00
2022-09-06T20:38:22.895Z,2.10
2022-09-06T20:40:57.941Z,1.97
2022-09-06T20:43:25.128Z,1.80
2022-09-06T20:45:52.606Z,1.90
2022-09-06T20:48:19.963Z,1.87
2022-09-06T20:50:47.241Z,1.60
2022-09-06T20:53:14.433Z,1.73
2022-09-06T20:55:41.675Z,1.70
2022-09-06T20:58:08.878Z,1.77
2022-09-06T21:00:40.251Z,1.73
2022-09-06T21:03:07.639Z,1.80
2022-09-06T21:05:34.779Z,1.53
2022-09-06T21:08:02.053Z,1.67
2022-09-06T21:10:29.231Z,1.80
2022-09-06T21:12:56.387Z,1.60
2022-09-06T21:15:23.638Z,1.60
2022-09-06T21:17:50.884Z,1.90
2022-09-06T21:20:18.075Z,1.83
2022-09-06T21:22:45.281Z,1.70
2022-09-06T21:25:12.527Z,1.40
2022-09-06T21:27:39.741Z,1.67
2022-09-06T21:30:07.355Z,2.43
2022-09-06T21:32:34.522Z,3.03
2022-09-06T21:35:01.704Z,7.60
2022-09-06T21:37:28.873Z,4.10
2022-09-06T21:39:56.081Z,1.80
2022-09-06T21:42:23.311Z,1.80
2022-09-06T21:44:50.482Z,1.70
2022-09-06T21:47:17.757Z,1.60
2022-09-06T21:49:44.959Z,1.50
2022-09-06T21:52:13.183Z,1.43
2022-09-06T21:54:40.337Z,1.57
2022-09-06T21:57:07.526Z,1.60
2022-09-06T21:59:34.796Z,1.57
2022-09-06T22:02:02.109Z,1.50
2022-09-06T22:04:29.329Z,1.53
2022-09-06T22:06:56.562Z,1.60
2022-09-06T22:09:23.786Z,1.50
2022-09-06T22:11:52.017Z,1.60
2022-09-06T22:14:19.281Z,1.60
2022-09-06T22:16:46.582Z,1.53
2022-09-06T22:19:14.125Z,1.63
2022-09-06T22:21:41.522Z,1.60
2022-09-06T22:24:10.529Z,1.73
2022-09-06T22:26:38.667Z,1.50
2022-09-06T22:29:07.366Z,1.80
2022-09-06T22:31:35.184Z,1.60
2022-09-06T22:34:04.044Z,1.60
2022-09-06T22:36:31.259Z,1.50
2022-09-06T22:38:59.128Z,1.50
2022-09-06T22:41:27.227Z,1.60
2022-09-06T22:43:54.636Z,1.50
2022-09-06T22:46:21.889Z,1.60
2022-09-06T22:48:49.375Z,1.50
2022-09-06T22:51:16.920Z,1.50
2022-09-06T22:53:44.412Z,1.70
2022-09-06T22:56:11.638Z,1.60
2022-09-06T22:58:38.838Z,1.50
2022-09-06T23:01:10.438Z,1.60
2022-09-06T23:03:37.909Z,1.40
2022-09-06T23:06:05.785Z,1.50
2022-09-06T23:08:33.556Z,1.60
2022-09-06T23:11:04.185Z,1.57
2022-09-06T23:13:31.563Z,1.60
2022-09-06T23:16:03.051Z,2.07
2022-09-06T23:18:30.355Z,1.87
2022-09-06T23:20:57.711Z,1.60
2022-09-06T23:23:24.993Z,1.70
2022-09-06T23:25:54.196Z,1.47
2022-09-06T23:28:21.359Z,1.70
2022-09-06T23:30:48.520Z,1.50
2022-09-06T23:33:15.676Z,1.53
2022-09-06T23:35:43.685Z,1.60
2022-09-06T23:38:10.843Z,1.40
2022-09-06T23:40:38.016Z,1.50
2022-09-06T23:43:05.170Z,1.80
2022-09-06T23:45:33.060Z,1.60
2022-09-06T23:48:00.204Z,1.60
2022-09-06T23:50:27.363Z,1.60
2022-09-06T23:52:54.536Z,1.90
2022-09-06T23:55:21.679Z,1.83
2022-09-06T23:57:48.825Z,1.80
